createdAt,value
2022-09-30T00:00:03.271Z,2.80
2022-09-30T00:01:03.432Z,2.90
2022-09-30T00:02:03.640Z,3.80
2022-09-30T00:03:03.832Z,3.10
2022-09-30T00:04:03.945Z,3.10
2022-09-30T00:05:04.119Z,3.70
2022-09-30T00:06:08.207Z,3.20
2022-09-30T00:07:04.461Z,3.20
2022-09-30T00:08:04.640Z,3.00
2022-09-30T00:09:04.840Z,3.20
2022-09-30T00:10:04.997Z,3.50
2022-09-30T00:11:05.155Z,3.30
2022-09-30T00:12:05.311Z,3.40
2022-09-30T00:13:05.522Z,3.40
2022-09-30T00:14:05.642Z,2.60
2022-09-30T00:15:05.800Z,3.40
2022-09-30T00:16:06.010Z,3.10
2022-09-30T00:17:06.152Z,3.60
2022-09-30T00:18:06.319Z,2.80
2022-09-30T00:19:06.487Z,2.80
2022-09-30T00:20:06.648Z,3.70
2022-09-30T00:21:06.820Z,2.90
2022-09-30T00:22:06.979Z,3.50
2022-09-30T00:23:07.170Z,2.90
2022-09-30T00:24:07.336Z,3.30
2022-09-30T00:25:07.501Z,2.90
2022-09-30T00:26:07.669Z,3.00
2022-09-30T00:27:07.836Z,3.20
2022-09-30T00:28:08.012Z,3.70
2022-09-30T00:29:08.171Z,3.00
2022-09-30T00:30:08.328Z,4.00
2022-09-30T00:31:08.569Z,3.60
2022-09-30T00:32:08.692Z,3.50
2022-09-30T00:33:08.886Z,2.80
2022-09-30T00:34:09.324Z,3.70
2022-09-30T00:35:09.238Z,3.90
2022-09-30T00:36:09.390Z,3.50
2022-09-30T00:37:09.578Z,3.30
2022-09-30T00:38:09.779Z,4.20
2022-09-30T00:39:09.898Z,3.60
2022-09-30T00:40:10.079Z,3.40
2022-09-30T00:41:10.293Z,3.70
2022-09-30T00:42:10.427Z,3.70
2022-09-30T00:43:10.677Z,3.60
2022-09-30T00:44:10.804Z,3.90
2022-09-30T00:45:10.988Z,4.40
2022-09-30T00:46:11.230Z,4.20
2022-09-30T00:47:11.417Z,4.40
2022-09-30T00:48:11.517Z,4.20
2022-09-30T00:49:11.667Z,4.40
2022-09-30T00:50:11.826Z,4.60
2022-09-30T00:51:12.030Z,4.80
2022-09-30T00:52:12.197Z,4.40
2022-09-30T00:53:12.420Z,3.90
2022-09-30T00:54:12.555Z,4.70
2022-09-30T00:55:12.747Z,4.40
2022-09-30T00:56:12.897Z,4.60
2022-09-30T00:57:13.088Z,5.30
2022-09-30T00:58:13.276Z,4.50
2022-09-30T00:59:13.463Z,3.90
2022-09-30T01:00:13.610Z,4.50
2022-09-30T01:01:13.841Z,4.60
2022-09-30T01:02:13.979Z,5.00
2022-09-30T01:03:14.167Z,4.90
2022-09-30T01:04:14.333Z,4.50
2022-09-30T01:05:14.487Z,4.90
2022-09-30T01:06:14.676Z,4.60
2022-09-30T01:07:14.863Z,4.60
2022-09-30T01:08:15.066Z,4.50
2022-09-30T01:09:15.323Z,4.90
2022-09-30T01:10:15.416Z,4.60
2022-09-30T01:11:15.576Z,4.90
2022-09-30T01:12:15.726Z,4.60
2022-09-30T01:13:15.935Z,4.50
2022-09-30T01:14:16.092Z,4.40
2022-09-30T01:15:16.275Z,4.90
2022-09-30T01:16:16.571Z,5.00
2022-09-30T01:17:16.646Z,4.60
2022-09-30T01:18:16.805Z,4.70
2022-09-30T01:19:17.017Z,4.00
2022-09-30T01:20:17.134Z,5.50
2022-09-30T01:21:17.337Z,4.80
2022-09-30T01:22:17.495Z,4.10
2022-09-30T01:23:17.697Z,4.40
2022-09-30T01:24:17.844Z,4.20
2022-09-30T01:25:18.004Z,3.80
2022-09-30T01:26:18.184Z,4.30
2022-09-30T01:27:18.392Z,4.50
2022-09-30T01:28:18.554Z,4.00
2022-09-30T01:29:18.765Z,3.90
2022-09-30T01:30:18.904Z,4.50
2022-09-30T01:31:19.123Z,5.20
2022-09-30T01:32:19.217Z,3.70
2022-09-30T01:33:19.434Z,3.90
2022-09-30T01:34:19.573Z,4.00
2022-09-30T01:35:19.767Z,4.10
2022-09-30T01:36:19.933Z,4.40
2022-09-30T01:37:20.093Z,4.00
2022-09-30T01:38:20.263Z,4.10
2022-09-30T01:39:20.440Z,4.20
2022-09-30T01:40:20.585Z,5.20
2022-09-30T01:41:20.780Z,4.50
2022-09-30T01:42:20.932Z,5.40
2022-09-30T01:43:21.123Z,6.10
2022-09-30T01:44:21.253Z,4.50
2022-09-30T01:45:21.442Z,4.90
2022-09-30T01:46:21.650Z,4.20
2022-09-30T01:47:21.773Z,5.40
2022-09-30T01:48:21.942Z,6.10
2022-09-30T01:49:22.222Z,5.10
2022-09-30T01:50:22.292Z,5.00
2022-09-30T01:51:22.491Z,5.60
2022-09-30T01:52:22.642Z,6.20
2022-09-30T01:53:22.822Z,5.00
2022-09-30T01:54:22.982Z,5.80
2022-09-30T01:55:23.171Z,5.50
2022-09-30T01:56:23.365Z,4.50
2022-09-30T01:57:23.551Z,5.00
2022-09-30T01:58:23.721Z,5.50
2022-09-30T01:59:23.880Z,4.10
2022-09-30T02:00:24.041Z,4.50
2022-09-30T02:01:24.232Z,4.80
2022-09-30T02:02:24.402Z,5.30
2022-09-30T02:03:24.592Z,4.70
2022-09-30T02:04:24.741Z,5.10
2022-09-30T02:05:24.938Z,5.40
2022-09-30T02:06:25.089Z,5.60
2022-09-30T02:07:25.273Z,5.00
2022-09-30T02:08:25.470Z,4.80
2022-09-30T02:09:25.763Z,5.20
2022-09-30T02:10:25.814Z,4.60
2022-09-30T02:11:26.002Z,5.30
2022-09-30T02:12:26.150Z,5.60
2022-09-30T02:13:26.382Z,5.00
2022-09-30T02:14:26.521Z,4.90
2022-09-30T02:15:26.711Z,4.60
2022-09-30T02:16:26.943Z,5.40
2022-09-30T02:17:27.029Z,5.40
2022-09-30T02:18:27.208Z,4.90
2022-09-30T02:19:27.370Z,5.60
2022-09-30T02:20:27.520Z,5.20
2022-09-30T02:21:27.732Z,5.80
2022-09-30T02:22:27.889Z,4.60
2022-09-30T02:23:28.058Z,5.40
2022-09-30T02:24:28.218Z,5.40
2022-09-30T02:25:28.406Z,5.80
2022-09-30T02:26:28.589Z,5.60
2022-09-30T02:27:28.799Z,5.60
2022-09-30T02:28:28.979Z,5.40
2022-09-30T02:29:29.130Z,5.10
2022-09-30T02:30:29.323Z,4.90
2022-09-30T02:31:29.602Z,5.70
2022-09-30T02:32:29.688Z,5.30
2022-09-30T02:33:29.897Z,5.80
2022-09-30T02:34:30.048Z,5.20
2022-09-30T02:35:30.238Z,4.80
2022-09-30T02:36:30.420Z,6.10
2022-09-30T02:37:30.588Z,5.80
2022-09-30T02:38:30.787Z,5.20
2022-09-30T02:39:30.947Z,5.10
2022-09-30T02:40:31.110Z,5.20
2022-09-30T02:41:31.298Z,5.80
2022-09-30T02:42:31.457Z,4.80
2022-09-30T02:43:31.667Z,5.00
2022-09-30T02:44:31.817Z,4.30
2022-09-30T02:45:32.017Z,4.90
2022-09-30T02:46:32.223Z,4.70
2022-09-30T02:47:32.358Z,4.90
2022-09-30T02:48:32.529Z,5.10
2022-09-30T02:49:32.686Z,6.40
2022-09-30T02:50:32.846Z,5.10
2022-09-30T02:51:33.044Z,4.90
2022-09-30T02:52:33.194Z,4.80
2022-09-30T02:53:33.399Z,5.10
2022-09-30T02:54:33.556Z,5.50
2022-09-30T02:55:33.735Z,5.40
2022-09-30T02:56:33.886Z,5.20
2022-09-30T02:57:34.076Z,5.50
2022-09-30T02:58:34.276Z,5.20
2022-09-30T02:59:34.426Z,4.90
2022-09-30T03:00:34.654Z,5.50
2022-09-30T03:01:34.847Z,5.70
2022-09-30T03:02:34.984Z,5.50
2022-09-30T03:03:35.158Z,5.50
2022-09-30T03:04:35.313Z,5.50
2022-09-30T03:05:35.475Z,5.20
2022-09-30T03:06:35.667Z,6.10
2022-09-30T03:07:35.824Z,5.20
2022-09-30T03:08:35.995Z,5.80
2022-09-30T03:09:36.206Z,5.00
2022-09-30T03:10:36.344Z,4.60
2022-09-30T03:11:36.495Z,5.30
2022-09-30T03:12:36.664Z,5.60
2022-09-30T03:13:36.865Z,6.00
2022-09-30T03:14:37.022Z,5.50
2022-09-30T03:15:37.206Z,5.10
2022-09-30T03:16:37.451Z,5.50
2022-09-30T03:17:37.574Z,4.40
2022-09-30T03:18:37.782Z,5.60
2022-09-30T03:19:37.944Z,6.00
2022-09-30T03:20:38.152Z,5.60
2022-09-30T03:21:38.304Z,5.50
2022-09-30T03:22:38.494Z,5.90
2022-09-30T03:23:38.694Z,5.60
2022-09-30T03:24:38.853Z,5.00
2022-09-30T03:25:39.015Z,5.70
2022-09-30T03:26:39.177Z,5.90
2022-09-30T03:27:39.331Z,5.10
2022-09-30T03:28:39.534Z,6.10
2022-09-30T03:29:39.696Z,5.50
2022-09-30T03:30:39.884Z,5.60
2022-09-30T03:31:40.134Z,5.90
2022-09-30T03:32:40.222Z,5.00
2022-09-30T03:33:40.432Z,6.20
2022-09-30T03:34:40.595Z,6.10
2022-09-30T03:35:40.773Z,6.00
2022-09-30T03:36:40.933Z,6.70
2022-09-30T03:37:41.113Z,5.50
2022-09-30T03:38:41.312Z,4.80
2022-09-30T03:39:41.492Z,5.60
2022-09-30T03:40:41.663Z,5.90
2022-09-30T03:41:41.815Z,5.50
2022-09-30T03:42:42.002Z,4.90
2022-09-30T03:43:42.202Z,4.90
2022-09-30T03:44:42.361Z,5.90
2022-09-30T03:45:42.521Z,6.40
2022-09-30T03:46:42.751Z,5.50
2022-09-30T03:47:42.878Z,5.10
2022-09-30T03:48:43.052Z,5.60
2022-09-30T03:49:43.202Z,5.80
2022-09-30T03:50:43.392Z,5.70
2022-09-30T03:51:43.581Z,5.60
2022-09-30T03:52:43.771Z,4.30
2022-09-30T03:53:43.980Z,5.70
2022-09-30T03:54:44.139Z,5.30
2022-09-30T03:55:44.291Z,5.70
2022-09-30T03:56:44.480Z,4.90
2022-09-30T03:57:44.639Z,4.20
2022-09-30T03:58:44.849Z,4.80
2022-09-30T03:59:45.030Z,4.80
2022-09-30T04:00:45.261Z,4.60
2022-09-30T04:01:45.463Z,4.30
2022-09-30T04:02:45.561Z,4.30
2022-09-30T04:03:45.710Z,5.00
2022-09-30T04:04:45.907Z,5.10
2022-09-30T04:05:46.050Z,4.30
2022-09-30T04:06:46.241Z,4.30
2022-09-30T04:07:46.459Z,4.30
2022-09-30T04:08:46.619Z,4.40
2022-09-30T04:09:46.833Z,4.70
2022-09-30T04:10:46.969Z,5.20
2022-09-30T04:11:47.129Z,3.80
2022-09-30T04:12:47.340Z,4.50
2022-09-30T04:13:47.491Z,4.50
2022-09-30T04:14:47.689Z,4.70
2022-09-30T04:15:47.849Z,4.40
2022-09-30T04:16:51.871Z,4.40
2022-09-30T04:17:49.201Z,4.60
2022-09-30T04:18:48.377Z,4.30
2022-09-30T04:19:48.530Z,4.90
2022-09-30T04:20:48.718Z,4.10
2022-09-30T04:21:48.898Z,3.70
2022-09-30T04:22:49.110Z,4.10
2022-09-30T04:23:49.269Z,4.30
2022-09-30T04:24:49.457Z,4.40
2022-09-30T04:25:49.643Z,4.60
2022-09-30T04:26:49.828Z,4.00
2022-09-30T04:27:50.067Z,4.10
2022-09-30T04:28:50.197Z,3.80
2022-09-30T04:29:50.350Z,5.10
2022-09-30T04:30:50.537Z,4.10
2022-09-30T04:31:50.760Z,4.80
2022-09-30T04:32:50.927Z,4.60
2022-09-30T04:33:51.078Z,4.10
2022-09-30T04:34:51.270Z,3.70
2022-09-30T04:35:51.432Z,4.50
2022-09-30T04:36:51.617Z,4.20
2022-09-30T04:37:51.788Z,4.30
2022-09-30T04:38:51.946Z,4.40
2022-09-30T04:39:52.099Z,4.40
2022-09-30T04:40:52.287Z,4.30
2022-09-30T04:41:52.436Z,4.50
2022-09-30T04:42:52.648Z,4.70
2022-09-30T04:43:52.796Z,4.30
2022-09-30T04:44:52.986Z,5.10
2022-09-30T04:45:53.233Z,4.10
2022-09-30T04:46:53.362Z,4.00
2022-09-30T04:47:53.535Z,4.60
2022-09-30T04:48:53.707Z,4.20
2022-09-30T04:49:53.876Z,4.40
2022-09-30T04:50:54.055Z,4.70
2022-09-30T04:51:54.225Z,5.00
2022-09-30T04:52:54.418Z,4.00
2022-09-30T04:53:54.554Z,3.90
2022-09-30T04:54:54.732Z,5.00
2022-09-30T04:55:54.904Z,4.90
2022-09-30T04:56:55.093Z,4.50
2022-09-30T04:57:55.237Z,4.00
2022-09-30T04:58:55.418Z,4.50
2022-09-30T04:59:55.594Z,4.70
2022-09-30T05:00:55.792Z,5.60
2022-09-30T05:01:56.002Z,4.70
2022-09-30T05:02:56.162Z,5.00
2022-09-30T05:03:56.306Z,4.80
2022-09-30T05:04:56.465Z,5.10
2022-09-30T05:05:56.652Z,4.60
2022-09-30T05:06:56.843Z,3.80
2022-09-30T05:07:57.014Z,4.60
2022-09-30T05:08:57.266Z,5.20
2022-09-30T05:09:57.391Z,4.70
2022-09-30T05:10:57.573Z,4.20
2022-09-30T05:11:57.774Z,3.90
2022-09-30T05:12:57.943Z,4.30
2022-09-30T05:13:58.126Z,4.50
2022-09-30T05:14:58.314Z,3.40
2022-09-30T05:15:58.522Z,3.80
2022-09-30T05:16:58.682Z,4.00
2022-09-30T05:17:58.813Z,3.90
2022-09-30T05:18:59.013Z,3.70
2022-09-30T05:19:59.183Z,4.10
2022-09-30T05:20:59.390Z,3.60
2022-09-30T05:21:59.558Z,5.10
2022-09-30T05:22:59.717Z,4.80
2022-09-30T05:23:59.859Z,3.90
2022-09-30T05:25:00.044Z,5.60
2022-09-30T05:26:00.223Z,4.60
2022-09-30T05:27:00.422Z,4.40
2022-09-30T05:28:00.562Z,4.20
2022-09-30T05:29:00.749Z,4.50
2022-09-30T05:30:00.922Z,4.40
2022-09-30T05:31:01.202Z,4.60
2022-09-30T05:32:01.349Z,5.10
2022-09-30T05:33:01.454Z,4.10
2022-09-30T05:34:01.651Z,5.00
2022-09-30T05:35:01.803Z,4.90
2022-09-30T05:36:02.008Z,5.60
2022-09-30T05:37:02.161Z,4.70
2022-09-30T05:38:02.331Z,5.00
2022-09-30T05:39:02.521Z,5.30
2022-09-30T05:40:02.673Z,5.50
2022-09-30T05:41:02.859Z,5.00
2022-09-30T05:42:03.010Z,5.60
2022-09-30T05:43:03.180Z,5.00
2022-09-30T05:44:03.341Z,6.20
2022-09-30T05:45:03.520Z,5.40
2022-09-30T05:46:03.702Z,5.10
2022-09-30T05:47:03.932Z,5.30
2022-09-30T05:48:04.021Z,5.50
2022-09-30T05:49:04.218Z,5.10
2022-09-30T05:50:04.359Z,5.20
2022-09-30T05:51:04.571Z,5.30
2022-09-30T05:52:04.779Z,4.80
2022-09-30T05:53:04.909Z,5.70
2022-09-30T05:54:05.069Z,5.00
2022-09-30T05:55:05.292Z,5.00
2022-09-30T05:56:05.429Z,5.00
2022-09-30T05:57:05.609Z,6.20
2022-09-30T05:58:05.758Z,9.20
2022-09-30T05:59:05.950Z,5.20
2022-09-30T06:00:06.143Z,5.00
2022-09-30T06:01:12.053Z,4.80
2022-09-30T06:02:07.561Z,5.30
2022-09-30T06:03:06.740Z,5.10
2022-09-30T06:04:06.829Z,4.70
2022-09-30T06:05:07.011Z,5.40
2022-09-30T06:06:07.195Z,4.40
2022-09-30T06:07:10.511Z,4.00
2022-09-30T06:08:07.518Z,3.90
2022-09-30T06:09:07.751Z,4.10
2022-09-30T06:10:07.873Z,4.40
2022-09-30T06:11:08.058Z,4.00
2022-09-30T06:12:08.219Z,3.60
2022-09-30T06:13:08.407Z,3.70
2022-09-30T06:14:08.582Z,3.60
2022-09-30T06:15:08.757Z,3.30
2022-09-30T06:16:08.994Z,4.20
2022-09-30T06:17:09.119Z,3.50
2022-09-30T06:18:09.297Z,3.60
2022-09-30T06:19:09.478Z,4.30
2022-09-30T06:20:09.667Z,3.90
2022-09-30T06:21:09.875Z,4.00
2022-09-30T06:22:10.048Z,3.70
2022-09-30T06:23:10.210Z,3.90
2022-09-30T06:24:10.345Z,4.00
2022-09-30T06:25:10.538Z,4.50
2022-09-30T06:26:10.697Z,4.20
2022-09-30T06:27:10.846Z,4.30
2022-09-30T06:28:11.046Z,4.30
2022-09-30T06:29:11.228Z,4.70
2022-09-30T06:30:11.383Z,5.00
2022-09-30T06:31:11.699Z,4.30
2022-09-30T06:32:11.756Z,4.60
2022-09-30T06:33:11.936Z,4.10
2022-09-30T06:34:12.115Z,4.40
2022-09-30T06:35:12.312Z,4.30
2022-09-30T06:36:12.469Z,5.20
2022-09-30T06:37:12.635Z,4.80
2022-09-30T06:38:12.836Z,4.30
2022-09-30T06:39:13.878Z,4.30
2022-09-30T06:40:13.201Z,4.50
2022-09-30T06:41:13.356Z,4.60
2022-09-30T06:42:13.535Z,5.30
2022-09-30T06:43:13.715Z,5.90
2022-09-30T06:44:13.895Z,5.50
2022-09-30T06:45:24.738Z,6.30
2022-09-30T06:46:20.514Z,5.50
2022-09-30T06:47:23.974Z,5.40
2022-09-30T06:48:17.183Z,6.10
2022-09-30T06:49:14.805Z,5.60
2022-09-30T06:50:23.769Z,6.60
2022-09-30T06:51:16.146Z,5.70
2022-09-30T06:52:15.304Z,6.20
2022-09-30T06:53:15.463Z,6.00
2022-09-30T06:54:15.636Z,5.90
2022-09-30T06:55:15.827Z,6.50
2022-09-30T06:56:15.995Z,6.90
2022-09-30T06:57:16.162Z,6.50
2022-09-30T06:58:16.315Z,6.30
2022-09-30T06:59:16.505Z,6.40
2022-09-30T07:00:16.664Z,6.80
2022-09-30T07:01:16.953Z,5.80
2022-09-30T07:02:17.092Z,7.50
2022-09-30T07:03:17.234Z,7.40
2022-09-30T07:04:17.384Z,9.20
2022-09-30T07:05:17.574Z,6.70
2022-09-30T07:06:17.777Z,5.60
2022-09-30T07:07:17.952Z,5.20
2022-09-30T07:08:18.103Z,4.90
2022-09-30T07:09:18.365Z,5.20
2022-09-30T07:10:18.474Z,4.80
2022-09-30T07:11:18.677Z,5.40
2022-09-30T07:12:18.852Z,5.60
2022-09-30T07:13:19.028Z,4.70
2022-09-30T07:14:19.221Z,4.40
2022-09-30T07:15:19.388Z,4.90
2022-09-30T07:16:19.666Z,5.10
2022-09-30T07:17:19.714Z,5.00
2022-09-30T07:18:19.897Z,5.00
2022-09-30T07:19:20.116Z,4.80
2022-09-30T07:20:20.349Z,4.60
2022-09-30T07:21:20.502Z,5.50
2022-09-30T07:22:20.676Z,7.90
2022-09-30T07:23:25.796Z,6.20
2022-09-30T07:24:22.056Z,6.50
2022-09-30T07:25:21.223Z,7.50
2022-09-30T07:26:21.390Z,4.90
2022-09-30T07:27:21.585Z,5.10
2022-09-30T07:28:21.835Z,5.20
2022-09-30T07:29:21.955Z,5.30
2022-09-30T07:30:27.066Z,4.70
2022-09-30T07:31:38.754Z,5.40
2022-09-30T07:32:23.462Z,5.50
2022-09-30T07:33:22.576Z,4.90
2022-09-30T07:34:22.746Z,4.40
2022-09-30T07:35:22.892Z,4.70
2022-09-30T07:36:23.091Z,4.90
2022-09-30T07:37:23.235Z,5.40
2022-09-30T07:38:23.425Z,5.10
2022-09-30T07:39:23.644Z,5.20
2022-09-30T07:40:23.875Z,4.80
2022-09-30T07:41:23.963Z,5.40
2022-09-30T07:42:24.111Z,4.60
2022-09-30T07:43:24.292Z,5.60
2022-09-30T07:44:24.491Z,4.90
2022-09-30T07:45:24.710Z,4.70
2022-09-30T07:46:24.872Z,4.70
2022-09-30T07:47:25.032Z,4.10
2022-09-30T07:48:25.398Z,5.60
2022-09-30T07:49:25.722Z,4.60
2022-09-30T07:50:25.635Z,4.20
2022-09-30T07:51:25.799Z,4.90
2022-09-30T07:52:25.945Z,4.20
2022-09-30T07:53:26.121Z,5.00
2022-09-30T07:54:26.332Z,4.70
2022-09-30T07:55:26.502Z,4.90
2022-09-30T07:56:26.703Z,5.00
2022-09-30T07:57:26.871Z,5.30
2022-09-30T07:58:27.052Z,5.20
2022-09-30T07:59:27.377Z,4.60
2022-09-30T08:00:42.014Z,4.80
2022-09-30T08:01:28.638Z,5.00
2022-09-30T08:02:27.777Z,4.70
2022-09-30T08:03:27.922Z,5.00
2022-09-30T08:04:28.101Z,5.30
2022-09-30T08:05:28.281Z,4.70
2022-09-30T08:06:28.498Z,4.30
2022-09-30T08:07:28.622Z,5.50
2022-09-30T08:08:28.812Z,4.30
2022-09-30T08:09:29.261Z,4.70
2022-09-30T08:10:29.165Z,4.50
2022-09-30T08:11:29.322Z,4.40
2022-09-30T08:12:29.482Z,4.60
2022-09-30T08:13:29.642Z,4.20
2022-09-30T08:14:29.839Z,4.70
2022-09-30T08:15:29.973Z,5.00
2022-09-30T08:16:30.228Z,4.40
2022-09-30T08:17:30.323Z,4.10
2022-09-30T08:18:30.523Z,4.00
2022-09-30T08:19:30.731Z,3.90
2022-09-30T08:20:30.875Z,4.00
2022-09-30T08:21:31.064Z,4.30
2022-09-30T08:22:31.243Z,4.40
2022-09-30T08:23:31.415Z,4.20
2022-09-30T08:24:31.621Z,4.50
2022-09-30T08:25:31.802Z,4.70
2022-09-30T08:26:31.934Z,3.90
2022-09-30T08:27:32.213Z,3.50
2022-09-30T08:28:32.303Z,3.80
2022-09-30T08:30:33.644Z,4.10
2022-09-30T08:31:32.886Z,3.80
2022-09-30T08:32:32.985Z,3.40
2022-09-30T08:33:33.135Z,3.60
2022-09-30T08:34:33.315Z,3.50
2022-09-30T08:35:33.486Z,3.90
2022-09-30T08:36:33.725Z,3.60
2022-09-30T08:37:33.887Z,4.10
2022-09-30T08:38:34.092Z,3.80
2022-09-30T08:39:34.196Z,3.40
2022-09-30T08:40:34.376Z,3.60
2022-09-30T08:41:34.656Z,3.80
2022-09-30T08:42:38.083Z,3.70
2022-09-30T08:43:35.916Z,3.90
2022-09-30T08:44:35.067Z,3.40
2022-09-30T08:45:35.279Z,3.60
2022-09-30T08:46:35.451Z,3.70
2022-09-30T08:47:35.588Z,3.60
2022-09-30T08:48:35.766Z,3.80
2022-09-30T08:49:35.942Z,3.60
2022-09-30T08:50:36.117Z,3.30
2022-09-30T08:51:36.308Z,3.80
2022-09-30T08:52:48.461Z,2.80
2022-09-30T08:53:37.680Z,3.40
2022-09-30T08:54:40.111Z,2.60
2022-09-30T08:55:37.019Z,2.80
2022-09-30T08:56:37.221Z,3.70
2022-09-30T08:57:37.351Z,2.90
2022-09-30T08:58:37.570Z,3.20
2022-09-30T08:59:37.719Z,3.60
2022-09-30T09:00:37.902Z,3.00
2022-09-30T09:01:38.191Z,2.90
2022-09-30T09:02:38.301Z,3.40
2022-09-30T09:03:38.422Z,2.90
2022-09-30T09:05:38.771Z,2.60
2022-09-30T09:06:39.032Z,2.50
2022-09-30T09:07:39.148Z,2.80
2022-09-30T09:08:39.341Z,2.50
2022-09-30T09:09:39.524Z,2.90
2022-09-30T09:10:39.692Z,3.20
2022-09-30T09:11:42.779Z,2.70
2022-09-30T09:12:40.062Z,2.70
2022-09-30T09:13:40.233Z,3.50
2022-09-30T09:14:40.435Z,3.00
2022-09-30T09:15:40.683Z,3.20
2022-09-30T09:16:40.827Z,2.70
2022-09-30T09:17:40.964Z,2.70
2022-09-30T09:18:41.174Z,2.70
2022-09-30T09:19:41.315Z,2.60
2022-09-30T09:20:41.514Z,2.80
2022-09-30T09:21:41.713Z,2.90
2022-09-30T09:22:41.916Z,2.50
2022-09-30T09:23:42.104Z,2.70
2022-09-30T09:24:42.265Z,2.30
2022-09-30T09:25:42.405Z,2.50
2022-09-30T09:26:42.616Z,3.00
2022-09-30T09:27:42.829Z,3.10
2022-09-30T09:28:42.929Z,2.50
2022-09-30T09:29:43.107Z,2.30
2022-09-30T09:30:43.347Z,2.30
2022-09-30T09:31:43.505Z,1.80
2022-09-30T09:32:43.649Z,2.70
2022-09-30T09:33:43.906Z,2.40
2022-09-30T09:34:43.968Z,2.20
2022-09-30T09:35:44.157Z,1.80
2022-09-30T09:36:44.349Z,1.80
2022-09-30T09:37:44.527Z,2.10
2022-09-30T09:38:44.699Z,1.60
2022-09-30T09:39:44.881Z,1.60
2022-09-30T09:40:45.079Z,2.10
2022-09-30T09:41:45.231Z,1.70
2022-09-30T09:42:45.423Z,2.10
2022-09-30T09:43:45.589Z,2.50
2022-09-30T09:44:45.765Z,2.10
2022-09-30T09:45:46.047Z,1.30
2022-09-30T09:46:46.100Z,1.50
2022-09-30T09:47:46.285Z,10.40
2022-09-30T09:48:46.450Z,3.40
2022-09-30T09:49:46.631Z,0.80
2022-09-30T09:50:46.863Z,4.30
2022-09-30T09:51:46.974Z,1.30
2022-09-30T09:52:47.158Z,1.80
2022-09-30T09:53:47.322Z,1.10
2022-09-30T09:54:47.506Z,0.80
2022-09-30T09:55:47.698Z,0.70
2022-09-30T09:56:47.833Z,0.80
2022-09-30T09:57:48.013Z,0.70
2022-09-30T09:58:48.220Z,0.60
2022-09-30T09:59:48.397Z,0.60
2022-09-30T10:00:48.745Z,1.20
2022-09-30T10:01:48.799Z,0.80
2022-09-30T10:02:48.903Z,0.50
2022-09-30T10:03:49.093Z,0.60
2022-09-30T10:04:49.268Z,0.80
2022-09-30T10:05:49.454Z,0.50
2022-09-30T10:06:49.636Z,0.50
2022-09-30T10:07:49.782Z,0.60
2022-09-30T10:08:49.967Z,0.50
2022-09-30T10:09:50.143Z,0.70
2022-09-30T10:10:50.350Z,0.50
2022-09-30T10:11:50.496Z,0.60
2022-09-30T10:12:50.653Z,0.90
2022-09-30T10:13:50.804Z,0.70
2022-09-30T10:14:50.996Z,1.00
2022-09-30T10:15:51.256Z,1.00
2022-09-30T10:16:51.344Z,0.50
2022-09-30T10:17:51.526Z,0.70
2022-09-30T10:18:51.725Z,0.50
2022-09-30T10:19:51.892Z,0.60
2022-09-30T10:20:52.117Z,0.50
2022-09-30T10:21:54.092Z,0.40
2022-09-30T10:22:52.416Z,0.20
2022-09-30T10:23:52.585Z,0.20
2022-09-30T10:24:52.765Z,0.40
2022-09-30T10:25:52.976Z,0.40
2022-09-30T10:26:53.157Z,0.50
2022-09-30T10:27:53.351Z,0.40
2022-09-30T10:28:53.491Z,0.60
2022-09-30T10:29:53.615Z,0.50
2022-09-30T10:30:53.805Z,0.50
2022-09-30T10:31:58.913Z,0.30
2022-09-30T10:32:55.147Z,0.60
2022-09-30T10:33:54.355Z,0.30
2022-09-30T10:34:54.539Z,0.60
2022-09-30T10:35:54.725Z,0.20
2022-09-30T10:36:54.911Z,0.30
2022-09-30T10:37:55.106Z,0.60
2022-09-30T10:38:55.267Z,0.20
2022-09-30T10:39:55.456Z,0.30
2022-09-30T10:40:55.662Z,0.80
2022-09-30T10:41:55.796Z,0.20
2022-09-30T10:42:55.977Z,0.20
2022-09-30T10:43:56.196Z,0.50
2022-09-30T10:44:56.350Z,0.20
2022-09-30T10:46:24.012Z,0.40
2022-09-30T10:46:57.803Z,0.30
2022-09-30T10:47:56.934Z,0.40
2022-09-30T10:48:57.060Z,0.20
2022-09-30T10:49:57.248Z,0.20
2022-09-30T10:50:57.461Z,0.30
2022-09-30T10:51:57.587Z,0.30
2022-09-30T10:52:57.771Z,0.20
2022-09-30T10:53:57.948Z,0.30
2022-09-30T10:54:58.128Z,0.30
2022-09-30T10:55:58.326Z,0.20
2022-09-30T10:57:00.009Z,0.40
2022-09-30T10:57:58.654Z,0.40
2022-09-30T10:58:58.838Z,0.60
2022-09-30T10:59:59.007Z,0.40
2022-09-30T11:00:59.208Z,0.20
2022-09-30T11:02:00.937Z,0.20
2022-09-30T11:02:59.611Z,0.40
2022-09-30T11:03:59.692Z,0.20
2022-09-30T11:04:59.885Z,0.20
2022-09-30T11:06:00.038Z,0.30
2022-09-30T11:07:00.246Z,0.20
2022-09-30T11:08:00.380Z,0.20
2022-09-30T11:09:00.579Z,0.30
2022-09-30T11:10:00.718Z,0.40
2022-09-30T11:11:02.786Z,0.20
2022-09-30T11:12:01.077Z,0.50
2022-09-30T11:13:01.256Z,0.20
2022-09-30T11:14:01.430Z,0.30
2022-09-30T11:15:01.660Z,0.10
2022-09-30T11:16:01.877Z,0.10
2022-09-30T11:17:01.959Z,0.10
2022-09-30T11:18:02.138Z,0.30
2022-09-30T11:19:02.320Z,0.20
2022-09-30T11:20:02.506Z,0.20
2022-09-30T11:21:02.709Z,0.20
2022-09-30T11:22:02.858Z,0.20
2022-09-30T11:23:03.041Z,0.40
2022-09-30T11:24:03.225Z,0.20
2022-09-30T11:25:06.300Z,0.20
2022-09-30T11:26:04.601Z,0.10
2022-09-30T11:27:03.767Z,0.20
2022-09-30T11:28:03.968Z,0.30
2022-09-30T11:29:04.089Z,0.20
2022-09-30T11:30:04.273Z,0.40
2022-09-30T11:31:07.123Z,0.10
2022-09-30T11:32:04.697Z,0.60
2022-09-30T11:33:04.778Z,0.30
2022-09-30T11:34:04.980Z,0.10
2022-09-30T11:35:05.121Z,0.10
2022-09-30T11:36:05.341Z,0.30
2022-09-30T11:37:05.468Z,0.20
2022-09-30T11:38:05.650Z,0.10
2022-09-30T11:39:05.830Z,0.10
2022-09-30T11:40:06.010Z,0.20
2022-09-30T11:41:06.200Z,0.10
2022-09-30T11:42:06.354Z,0.10
2022-09-30T11:43:08.333Z,0.20
2022-09-30T11:44:06.733Z,0.10
2022-09-30T11:45:06.903Z,0.60
2022-09-30T11:46:07.180Z,0.10
2022-09-30T11:47:07.324Z,0.20
2022-09-30T11:48:07.422Z,0.20
2022-09-30T11:49:07.601Z,0.40
2022-09-30T11:50:07.813Z,0.10
2022-09-30T11:51:07.993Z,0.10
2022-09-30T11:52:08.142Z,0.10
2022-09-30T11:53:08.302Z,0.10
2022-09-30T11:54:08.456Z,0.20
2022-09-30T11:55:11.797Z,0.20
2022-09-30T11:56:09.839Z,0.50
2022-09-30T11:57:08.993Z,0.30
2022-09-30T11:58:36.292Z,0.30
2022-09-30T11:59:10.362Z,0.20
2022-09-30T12:00:09.553Z,0.20
2022-09-30T12:01:09.762Z,0.20
2022-09-30T12:02:10.044Z,0.10
2022-09-30T12:03:10.432Z,0.20
2022-09-30T12:04:10.235Z,0.30
2022-09-30T12:05:10.412Z,0.30
2022-09-30T12:06:10.623Z,0.10
2022-09-30T12:07:10.766Z,0.50
2022-09-30T12:08:10.945Z,0.20
2022-09-30T12:09:11.112Z,0.70
2022-09-30T12:10:11.334Z,0.10
2022-09-30T12:11:11.503Z,0.20
2022-09-30T12:12:16.299Z,0.20
2022-09-30T12:13:12.768Z,0.20
2022-09-30T12:14:11.955Z,0.20
2022-09-30T12:15:12.143Z,0.20
2022-09-30T12:16:12.384Z,0.20
2022-09-30T12:17:12.512Z,0.20
2022-09-30T12:18:12.703Z,0.20
2022-09-30T12:19:12.899Z,0.30
2022-09-30T12:20:13.114Z,0.10
2022-09-30T12:21:13.273Z,0.30
2022-09-30T12:22:13.464Z,0.20
2022-09-30T12:23:13.579Z,0.20
2022-09-30T12:24:13.786Z,0.50
2022-09-30T12:25:13.915Z,0.10
2022-09-30T12:26:14.137Z,0.30
2022-09-30T12:27:14.273Z,0.20
2022-09-30T12:28:14.526Z,0.20
2022-09-30T12:29:14.703Z,0.20
2022-09-30T12:30:14.855Z,0.10
2022-09-30T12:31:14.996Z,0.20
2022-09-30T12:32:15.212Z,0.10
2022-09-30T12:33:15.324Z,0.20
2022-09-30T12:34:15.553Z,0.10
2022-09-30T12:35:15.703Z,0.20
2022-09-30T12:36:15.875Z,0.10
2022-09-30T12:37:16.106Z,0.10
2022-09-30T12:38:16.215Z,0.20
2022-09-30T12:39:16.394Z,0.20
2022-09-30T12:40:16.575Z,0.20
2022-09-30T12:41:16.772Z,0.10
2022-09-30T12:42:16.926Z,0.20
2022-09-30T12:43:17.090Z,0.30
2022-09-30T12:44:17.266Z,0.10
2022-09-30T12:45:17.486Z,0.10
2022-09-30T12:46:17.758Z,0.10
2022-09-30T12:47:17.801Z,0.10
2022-09-30T12:48:17.965Z,0.60
2022-09-30T12:49:18.113Z,0.10
2022-09-30T12:50:18.286Z,0.10
2022-09-30T12:51:18.506Z,0.10
2022-09-30T12:52:18.646Z,0.00
2022-09-30T12:53:18.826Z,0.00
2022-09-30T12:54:18.990Z,0.30
2022-09-30T12:55:19.128Z,0.30
2022-09-30T12:56:19.334Z,0.70
2022-09-30T12:57:19.466Z,0.10
2022-09-30T12:58:19.688Z,0.20
2022-09-30T12:59:19.816Z,0.10
2022-09-30T13:00:20.007Z,35.30
2022-09-30T13:01:20.259Z,0.30
2022-09-30T13:02:20.447Z,0.50
2022-09-30T13:03:20.548Z,0.20
2022-09-30T13:04:20.726Z,0.20
2022-09-30T13:05:20.936Z,0.10
2022-09-30T13:06:21.311Z,0.00
2022-09-30T13:07:21.277Z,0.10
2022-09-30T13:08:25.103Z,0.10
2022-09-30T13:09:21.630Z,0.00
2022-09-30T13:10:21.798Z,0.10
2022-09-30T13:11:22.044Z,0.20
2022-09-30T13:12:22.236Z,0.00
2022-09-30T13:13:22.308Z,0.10
2022-09-30T13:14:26.021Z,0.00
2022-09-30T13:15:22.725Z,0.10
2022-09-30T13:16:27.570Z,0.10
2022-09-30T13:17:23.999Z,0.10
2022-09-30T13:18:23.187Z,0.00
2022-09-30T13:19:23.364Z,0.10
2022-09-30T13:20:23.558Z,0.00
2022-09-30T13:21:23.721Z,0.00
2022-09-30T13:22:23.895Z,0.10